Huvudsida
METAR-TAF:

METAR-TAF

Flygplatser :

Sogndals, Norge

Sogndals flygplats. Haukåsen

latitud: 61-09N, longitud: 007-08E, höjd: 49 m

Aktuellt väderrapport

Denna rapport gjordes för 7 timmar och 40 minuter sedan, klockan 19:50 UTC
Vind 1 kt varierande vindriktning
Temperatur -6°C
Fuktighet 93%
Tryck 992 hPa
Sikt: 8000 m
Få moln på en höjd av 200 ft
Spridda moln på en höjd av 1500 ft
Brutna moln på en höjd av 2500 ft
lätt snö

METAR: ENSG 181950Z VRB01KT 8000 -SN FEW002 SCT015 BKN025 M06/M07 Q0992 RMK WIND 3806FT 09007KT

Tid: 04:30 (03:30 UTC)


TAF: saknas

Aktuella väderrapporter och prognoser från 4000 flygplatser (METAR- och TAF-rapporter).

De tillgängliga stationerna syns som gula och röda prickar på kartan.

För musen över prickarna för att se namnen på stationerna.

Klicka sedan för att få väderrapporter och prognoser.

För att ändra kartan: Klicka på de gröna knapparna med ett svart kors på för att zooma in; den gröna knappen med ett streck på för att zooma ut; eller på de gröna pilarna för angränsande kartor.


METAR-TAF: